sensor_id;sensor_type;location;lat;lon;timestamp;pressure;altitude;pressure_sealevel;temperature;humidity
49723;BME280;43484;43.608;1.458;2024-02-14T00:02:04;100039.38;;;8.59;100.00
49723;BME280;43484;43.608;1.458;2024-02-14T00:04:32;100043.28;;;8.51;100.00
49723;BME280;43484;43.608;1.458;2024-02-14T00:06:59;100044.06;;;8.49;100.00
49723;BME280;43484;43.608;1.458;2024-02-14T00:09:25;100044.78;;;8.46;100.00
49723;BME280;43484;43.608;1.458;2024-02-14T00:11:52;100038.69;;;8.43;100.00
49723;BME280;43484;43.608;1.458;2024-02-14T00:14:19;100040.34;;;8.42;100.00
49723;BME280;43484;43.608;1.458;2024-02-14T00:16:46;100046.78;;;8.33;100.00
49723;BME280;43484;43.608;1.458;2024-02-14T00:19:13;100059.59;;;8.34;100.00
49723;BME280;43484;43.608;1.458;2024-02-14T00:21:41;100072.63;;;8.40;100.00
49723;BME280;43484;43.608;1.458;2024-02-14T00:24:08;100075.31;;;8.43;100.00
49723;BME280;43484;43.608;1.458;2024-02-14T00:26:35;100077.59;;;8.37;100.00
49723;BME280;43484;43.608;1.458;2024-02-14T00:29:02;100093.78;;;8.38;100.00
49723;BME280;43484;43.608;1.458;2024-02-14T00:31:29;100087.06;;;8.40;100.00
49723;BME280;43484;43.608;1.458;2024-02-14T00:33:55;100099.59;;;8.34;100.00
49723;BME280;43484;43.608;1.458;2024-02-14T00:36:23;100107.84;;;8.28;100.00
49723;BME280;43484;43.608;1.458;2024-02-14T00:38:49;100106.34;;;8.33;100.00
49723;BME280;43484;43.608;1.458;2024-02-14T00:41:16;100102.69;;;8.27;100.00
49723;BME280;43484;43.608;1.458;2024-02-14T00:43:42;100090.44;;;8.20;100.00
49723;BME280;43484;43.608;1.458;2024-02-14T00:46:09;100090.19;;;8.14;100.00
49723;BME280;43484;43.608;1.458;2024-02-14T00:48:41;100084.97;;;8.12;100.00
49723;BME280;43484;43.608;1.458;2024-02-14T00:51:08;100081.59;;;8.12;100.00
49723;BME280;43484;43.608;1.458;2024-02-14T00:53:34;100078.97;;;8.10;100.00
49723;BME280;43484;43.608;1.458;2024-02-14T00:56:01;100079.88;;;8.12;100.00
49723;BME280;43484;43.608;1.458;2024-02-14T00:58:29;100079.34;;;8.19;100.00
49723;BME280;43484;43.608;1.458;2024-02-14T01:00:55;100092.72;;;8.14;100.00
49723;BME280;43484;43.608;1.458;2024-02-14T01:03:22;100090.91;;;8.11;100.00
49723;BME280;43484;43.608;1.458;2024-02-14T01:05:48;100089.00;;;8.07;100.00
49723;BME280;43484;43.608;1.458;2024-02-14T01:08:16;100104.25;;;8.06;100.00
49723;BME280;43484;43.608;1.458;2024-02-14T01:10:43;100111.00;;;8.04;100.00
49723;BME280;43484;43.608;1.458;2024-02-14T01:13:10;100097.06;;;7.97;100.00
49723;BME280;43484;43.608;1.458;2024-02-14T01:15:36;100101.25;;;7.95;100.00
49723;BME280;43484;43.608;1.458;2024-02-14T01:18:04;100104.19;;;8.04;100.00
49723;BME280;43484;43.608;1.458;2024-02-14T01:20:31;100106.75;;;8.04;100.00
49723;BME280;43484;43.608;1.458;2024-02-14T01:22:58;100101.41;;;7.98;100.00
49723;BME280;43484;43.608;1.458;2024-02-14T01:25:26;100087.44;;;7.90;100.00
49723;BME280;43484;43.608;1.458;2024-02-14T01:27:53;100090.06;;;7.92;100.00
49723;BME280;43484;43.608;1.458;2024-02-14T01:30:19;100087.50;;;7.92;100.00
49723;BME280;43484;43.608;1.458;2024-02-14T01:32:46;100080.69;;;7.92;100.00
49723;BME280;43484;43.608;1.458;2024-02-14T01:35:13;100076.28;;;7.88;100.00
49723;BME280;43484;43.608;1.458;2024-02-14T01:37:40;100080.69;;;7.92;100.00
49723;BME280;43484;43.608;1.458;2024-02-14T01:40:07;100072.06;;;7.89;100.00
49723;BME280;43484;43.608;1.458;2024-02-14T01:42:34;100068.56;;;7.87;100.00
49723;BME280;43484;43.608;1.458;2024-02-14T01:45:00;100076.53;;;7.94;100.00
49723;BME280;43484;43.608;1.458;2024-02-14T01:47:29;100083.75;;;7.84;100.00
49723;BME280;43484;43.608;1.458;2024-02-14T01:49:59;100087.44;;;7.90;100.00
49723;BME280;43484;43.608;1.458;2024-02-14T01:52:26;100086.31;;;7.84;100.00
49723;BME280;43484;43.608;1.458;2024-02-14T01:54:54;100089.31;;;7.75;100.00
49723;BME280;43484;43.608;1.458;2024-02-14T01:57:21;100077.88;;;7.67;100.00
49723;BME280;43484;43.608;1.458;2024-02-14T01:59:50;100083.13;;;7.70;100.00
49723;BME280;43484;43.608;1.458;2024-02-14T02:02:19;100081.50;;;7.72;100.00
49723;BME280;43484;43.608;1.458;2024-02-14T02:04:46;100088.25;;;7.70;100.00
49723;BME280;43484;43.608;1.458;2024-02-14T02:07:13;100101.66;;;7.66;100.00
49723;BME280;43484;43.608;1.458;2024-02-14T02:09:40;100096.59;;;7.68;100.00
49723;BME280;43484;43.608;1.458;2024-02-14T02:12:06;100099.28;;;7.71;100.00
49723;BME280;43484;43.608;1.458;2024-02-14T02:14:34;100092.78;;;7.77;100.00
49723;BME280;43484;43.608;1.458;2024-02-14T02:17:01;100104.13;;;7.64;100.00
49723;BME280;43484;43.608;1.458;2024-02-14T02:19:28;100091.25;;;7.61;100.00
49723;BME280;43484;43.608;1.458;2024-02-14T02:21:55;100081.91;;;7.62;100.00
49723;BME280;43484;43.608;1.458;2024-02-14T02:24:22;100080.31;;;7.64;100.00
49723;BME280;43484;43.608;1.458;2024-02-14T02:26:48;100080.16;;;7.61;100.00
49723;BME280;43484;43.608;1.458;2024-02-14T02:29:15;100085.00;;;7.55;100.00
49723;BME280;43484;43.608;1.458;2024-02-14T02:31:43;100080.31;;;7.64;100.00
49723;BME280;43484;43.608;1.458;2024-02-14T02:34:09;100081.72;;;7.57;100.00
49723;BME280;43484;43.608;1.458;2024-02-14T02:36:37;100097.38;;;7.47;100.00
49723;BME280;43484;43.608;1.458;2024-02-14T02:39:04;100089.69;;;7.46;100.00
49723;BME280;43484;43.608;1.458;2024-02-14T02:41:34;100084.13;;;7.54;100.00
49723;BME280;43484;43.608;1.458;2024-02-14T02:44:01;100081.22;;;7.47;100.00
49723;BME280;43484;43.608;1.458;2024-02-14T02:46:28;100079.47;;;7.46;100.00
49723;BME280;43484;43.608;1.458;2024-02-14T02:48:56;100078.47;;;7.42;100.00
49723;BME280;43484;43.608;1.458;2024-02-14T02:51:24;100073.25;;;7.39;100.00
49723;BME280;43484;43.608;1.458;2024-02-14T02:53:51;100071.41;;;7.37;100.00
49723;BME280;43484;43.608;1.458;2024-02-14T02:56:18;100086.94;;;7.41;100.00
49723;BME280;43484;43.608;1.458;2024-02-14T02:58:45;100083.13;;;7.33;100.00
49723;BME280;43484;43.608;1.458;2024-02-14T03:01:11;100086.63;;;7.35;100.00
49723;BME280;43484;43.608;1.458;2024-02-14T03:03:39;100091.59;;;7.32;100.00
49723;BME280;43484;43.608;1.458;2024-02-14T03:06:05;100082.94;;;7.29;100.00
49723;BME280;43484;43.608;1.458;2024-02-14T03:08:33;100065.69;;;7.23;100.00
49723;BME280;43484;43.608;1.458;2024-02-14T03:11:07;100056.13;;;7.37;100.00
49723;BME280;43484;43.608;1.458;2024-02-14T03:13:34;100064.16;;;7.27;100.00
49723;BME280;43484;43.608;1.458;2024-02-14T03:16:02;100061.59;;;7.27;100.00
49723;BME280;43484;43.608;1.458;2024-02-14T03:18:29;100056.09;;;7.18;100.00
49723;BME280;43484;43.608;1.458;2024-02-14T03:20:55;100053.41;;;7.15;100.00
49723;BME280;43484;43.608;1.458;2024-02-14T03:23:22;100043.94;;;7.12;100.00
49723;BME280;43484;43.608;1.458;2024-02-14T03:25:49;100041.47;;;7.14;100.00
49723;BME280;43484;43.608;1.458;2024-02-14T03:28:17;100042.16;;;7.10;100.00
49723;BME280;43484;43.608;1.458;2024-02-14T03:30:44;100039.66;;;7.11;100.00
49723;BME280;43484;43.608;1.458;2024-02-14T03:33:11;100032.53;;;7.04;100.00
49723;BME280;43484;43.608;1.458;2024-02-14T03:35:38;100035.16;;;7.06;100.00
49723;BME280;43484;43.608;1.458;2024-02-14T03:38:04;100033.56;;;7.08;100.00
49723;BME280;43484;43.608;1.458;2024-02-14T03:40:35;100032.03;;;7.11;100.00
49723;BME280;43484;43.608;1.458;2024-02-14T03:43:02;100039.06;;;7.17;100.00
49723;BME280;43484;43.608;1.458;2024-02-14T03:45:29;100041.34;;;7.11;100.00
49723;BME280;43484;43.608;1.458;2024-02-14T03:47:56;100042.28;;;7.13;100.00
49723;BME280;43484;43.608;1.458;2024-02-14T03:50:23;100043.06;;;7.12;100.00
49723;BME280;43484;43.608;1.458;2024-02-14T03:52:49;100038.91;;;7.14;100.00
49723;BME280;43484;43.608;1.458;2024-02-14T03:55:16;100026.06;;;7.11;100.00
49723;BME280;43484;43.608;1.458;2024-02-14T03:57:45;100022.91;;;7.16;100.00
49723;BME280;43484;43.608;1.458;2024-02-14T04:00:13;100016.00;;;7.14;100.00
49723;BME280;43484;43.608;1.458;2024-02-14T04:02:41;100006.81;;;7.17;100.00
49723;BME280;43484;43.608;1.458;2024-02-14T04:05:08;100002.66;;;7.19;100.00
49723;BME280;43484;43.608;1.458;2024-02-14T04:07:35;100008.16;;;7.09;100.00
49723;BME280;43484;43.608;1.458;2024-02-14T04:10:04;100005.22;;;7.19;100.00
49723;BME280;43484;43.608;1.458;2024-02-14T04:12:30;100000.84;;;7.17;100.00
49723;BME280;43484;43.608;1.458;2024-02-14T04:14:57;100005.94;;;7.17;100.00
49723;BME280;43484;43.608;1.458;2024-02-14T04:17:24;100003.19;;;7.12;100.00
49723;BME280;43484;43.608;1.458;2024-02-14T04:19:51;99995.22;;;7.05;100.00
49723;BME280;43484;43.608;1.458;2024-02-14T04:22:18;100004.53;;;7.04;100.00
49723;BME280;43484;43.608;1.458;2024-02-14T04:24:45;100009.69;;;7.06;100.00
49723;BME280;43484;43.608;1.458;2024-02-14T04:27:12;100006.19;;;7.04;100.00
49723;BME280;43484;43.608;1.458;2024-02-14T04:29:38;100011.59;;;6.92;100.00
49723;BME280;43484;43.608;1.458;2024-02-14T04:32:05;100007.53;;;6.96;100.00
49723;BME280;43484;43.608;1.458;2024-02-14T04:34:31;100012.53;;;6.94;100.00
49723;BME280;43484;43.608;1.458;2024-02-14T04:36:59;100011.31;;;6.86;100.00
49723;BME280;43484;43.608;1.458;2024-02-14T04:39:25;100017.19;;;6.85;100.00
49723;BME280;43484;43.608;1.458;2024-02-14T04:41:52;100010.38;;;6.84;100.00
49723;BME280;43484;43.608;1.458;2024-02-14T04:44:29;100017.94;;;6.83;100.00
49723;BME280;43484;43.608;1.458;2024-02-14T04:46:57;100010.81;;;6.76;100.00
49723;BME280;43484;43.608;1.458;2024-02-14T04:49:27;100005.66;;;6.74;100.00
49723;BME280;43484;43.608;1.458;2024-02-14T04:51:56;100009.09;;;6.75;100.00
49723;BME280;43484;43.608;1.458;2024-02-14T04:54:23;100008.19;;;6.74;100.00
49723;BME280;43484;43.608;1.458;2024-02-14T04:56:51;100010.53;;;6.70;100.00
49723;BME280;43484;43.608;1.458;2024-02-14T04:59:23;100004.63;;;6.71;100.00
49723;BME280;43484;43.608;1.458;2024-02-14T05:01:50;100010.44;;;6.68;100.00
49723;BME280;43484;43.608;1.458;2024-02-14T05:04:18;100010.31;;;6.65;100.00
49723;BME280;43484;43.608;1.458;2024-02-14T05:06:44;100011.63;;;6.57;100.00
49723;BME280;43484;43.608;1.458;2024-02-14T05:09:11;100009.00;;;6.56;100.00
49723;BME280;43484;43.608;1.458;2024-02-14T05:11:38;100008.25;;;6.58;100.00
49723;BME280;43484;43.608;1.458;2024-02-14T05:14:04;100010.72;;;6.57;100.00
49723;BME280;43484;43.608;1.458;2024-02-14T05:16:31;100005.38;;;6.51;100.00
49723;BME280;43484;43.608;1.458;2024-02-14T05:18:58;100015.53;;;6.51;100.00
49723;BME280;43484;43.608;1.458;2024-02-14T05:21:25;100009.56;;;6.50;100.00
49723;BME280;43484;43.608;1.458;2024-02-14T05:23:51;100002.69;;;6.48;100.00
49723;BME280;43484;43.608;1.458;2024-02-14T05:26:18;100005.44;;;6.52;100.00
49723;BME280;43484;43.608;1.458;2024-02-14T05:28:45;100006.97;;;6.49;100.00
49723;BME280;43484;43.608;1.458;2024-02-14T05:31:11;100010.09;;;6.61;100.00
49723;BME280;43484;43.608;1.458;2024-02-14T05:33:38;100012.50;;;6.58;100.00
49723;BME280;43484;43.608;1.458;2024-02-14T05:36:05;100012.19;;;6.52;100.00
49723;BME280;43484;43.608;1.458;2024-02-14T05:38:32;100007.84;;;6.49;100.00
49723;BME280;43484;43.608;1.458;2024-02-14T05:41:00;100007.84;;;6.49;100.00
49723;BME280;43484;43.608;1.458;2024-02-14T05:43:27;100018.16;;;6.52;100.00
49723;BME280;43484;43.608;1.458;2024-02-14T05:45:53;100012.94;;;6.49;100.00
49723;BME280;43484;43.608;1.458;2024-02-14T05:48:20;100012.53;;;6.42;100.00
49723;BME280;43484;43.608;1.458;2024-02-14T05:50:47;100017.81;;;6.45;100.00
49723;BME280;43484;43.608;1.458;2024-02-14T05:53:13;100020.25;;;6.43;100.00
49723;BME280;43484;43.608;1.458;2024-02-14T05:55:40;100021.44;;;6.50;100.00
49723;BME280;43484;43.608;1.458;2024-02-14T05:58:07;100014.53;;;6.47;100.00
49723;BME280;43484;43.608;1.458;2024-02-14T06:00:33;100025.44;;;6.45;100.00
49723;BME280;43484;43.608;1.458;2024-02-14T06:03:03;100028.63;;;6.41;100.00
49723;BME280;43484;43.608;1.458;2024-02-14T06:05:34;100027.75;;;6.40;100.00
49723;BME280;43484;43.608;1.458;2024-02-14T06:08:01;100029.94;;;6.32;100.00
49723;BME280;43484;43.608;1.458;2024-02-14T06:10:29;100025.25;;;6.24;100.00
49723;BME280;43484;43.608;1.458;2024-02-14T06:12:56;100040.44;;;6.22;100.00
49723;BME280;43484;43.608;1.458;2024-02-14T06:15:23;100054.75;;;6.20;100.00
49723;BME280;43484;43.608;1.458;2024-02-14T06:17:50;100047.94;;;6.19;100.00
49723;BME280;43484;43.608;1.458;2024-02-14T06:20:17;100050.84;;;6.27;100.00
49723;BME280;43484;43.608;1.458;2024-02-14T06:22:44;100066.84;;;6.24;100.00
49723;BME280;43484;43.608;1.458;2024-02-14T06:25:22;100069.00;;;6.17;100.00
49723;BME280;43484;43.608;1.458;2024-02-14T06:27:49;100075.38;;;6.09;100.00
49723;BME280;43484;43.608;1.458;2024-02-14T06:30:15;100087.03;;;6.05;100.00
49723;BME280;43484;43.608;1.458;2024-02-14T06:32:44;100082.91;;;6.07;100.00
49723;BME280;43484;43.608;1.458;2024-02-14T06:35:11;100084.09;;;6.14;100.00
49723;BME280;43484;43.608;1.458;2024-02-14T06:37:38;100087.34;;;6.11;100.00
49723;BME280;43484;43.608;1.458;2024-02-14T06:40:18;100085.31;;;6.04;100.00
49723;BME280;43484;43.608;1.458;2024-02-14T06:42:44;100095.06;;;5.97;100.00
49723;BME280;43484;43.608;1.458;2024-02-14T06:45:11;100095.06;;;5.97;100.00
49723;BME280;43484;43.608;1.458;2024-02-14T06:47:38;100095.69;;;5.93;100.00
49723;BME280;43484;43.608;1.458;2024-02-14T06:50:06;100093.09;;;5.91;100.00
49723;BME280;43484;43.608;1.458;2024-02-14T06:52:36;100096.38;;;5.89;100.00
49723;BME280;43484;43.608;1.458;2024-02-14T06:55:03;100097.94;;;5.87;100.00
49723;BME280;43484;43.608;1.458;2024-02-14T06:57:30;100094.38;;;5.83;100.00
49723;BME280;43484;43.608;1.458;2024-02-14T06:59:57;100095.16;;;5.82;100.00
49723;BME280;43484;43.608;1.458;2024-02-14T07:02:24;100091.81;;;5.83;100.00
49723;BME280;43484;43.608;1.458;2024-02-14T07:04:54;100095.63;;;5.91;100.00
49723;BME280;43484;43.608;1.458;2024-02-14T07:07:21;100109.31;;;5.93;100.00
49723;BME280;43484;43.608;1.458;2024-02-14T07:09:47;100110.97;;;5.93;100.00
49723;BME280;43484;43.608;1.458;2024-02-14T07:12:14;100110.34;;;5.97;100.00
49723;BME280;43484;43.608;1.458;2024-02-14T07:14:41;100117.06;;;5.96;100.00
49723;BME280;43484;43.608;1.458;2024-02-14T07:17:07;100111.22;;;5.97;100.00
49723;BME280;43484;43.608;1.458;2024-02-14T07:19:34;100108.75;;;5.99;100.00
49723;BME280;43484;43.608;1.458;2024-02-14T07:22:01;100115.72;;;6.03;100.00
49723;BME280;43484;43.608;1.458;2024-02-14T07:24:28;100115.16;;;6.08;100.00
49723;BME280;43484;43.608;1.458;2024-02-14T07:26:54;100114.47;;;6.11;100.00
49723;BME280;43484;43.608;1.458;2024-02-14T07:29:21;100120.25;;;6.08;100.00
49723;BME280;43484;43.608;1.458;2024-02-14T07:31:47;100118.75;;;6.12;100.00
49723;BME280;43484;43.608;1.458;2024-02-14T07:34:14;100123.91;;;6.13;100.00
49723;BME280;43484;43.608;1.458;2024-02-14T07:36:41;100119.78;;;6.15;100.00
49723;BME280;43484;43.608;1.458;2024-02-14T07:39:12;100118.97;;;6.16;100.00
49723;BME280;43484;43.608;1.458;2024-02-14T07:41:39;100115.94;;;6.23;100.00
49723;BME280;43484;43.608;1.458;2024-02-14T07:44:06;100113.63;;;6.28;100.00
49723;BME280;43484;43.608;1.458;2024-02-14T07:46:32;100115.41;;;6.29;100.00
49723;BME280;43484;43.608;1.458;2024-02-14T07:48:59;100125.78;;;6.33;100.00
49723;BME280;43484;43.608;1.458;2024-02-14T07:51:26;100128.16;;;6.47;100.00
49723;BME280;43484;43.608;1.458;2024-02-14T07:53:55;100139.28;;;6.49;100.00
49723;BME280;43484;43.608;1.458;2024-02-14T07:56:22;100155.66;;;6.54;100.00
49723;BME280;43484;43.608;1.458;2024-02-14T07:58:48;100157.25;;;6.52;100.00
49723;BME280;43484;43.608;1.458;2024-02-14T08:01:16;100153.72;;;6.66;100.00
49723;BME280;43484;43.608;1.458;2024-02-14T08:03:43;100152.13;;;6.68;100.00
49723;BME280;43484;43.608;1.458;2024-02-14T08:06:09;100143.81;;;6.72;100.00
49723;BME280;43484;43.608;1.458;2024-02-14T08:08:36;100142.25;;;6.74;100.00
49723;BME280;43484;43.608;1.458;2024-02-14T08:11:03;100150.91;;;6.77;100.00
49723;BME280;43484;43.608;1.458;2024-02-14T08:13:30;100148.56;;;6.82;100.00
49723;BME280;43484;43.608;1.458;2024-02-14T08:15:57;100151.09;;;6.98;100.00
49723;BME280;43484;43.608;1.458;2024-02-14T08:18:24;100153.34;;;7.09;100.00
49723;BME280;43484;43.608;1.458;2024-02-14T08:20:53;100161.06;;;7.11;100.00
49723;BME280;43484;43.608;1.458;2024-02-14T08:23:21;100161.88;;;7.10;100.00
49723;BME280;43484;43.608;1.458;2024-02-14T08:25:47;100155.22;;;7.13;100.00
49723;BME280;43484;43.608;1.458;2024-02-14T08:28:15;100146.22;;;7.20;100.00
49723;BME280;43484;43.608;1.458;2024-02-14T08:30:44;100147.31;;;7.25;100.00
49723;BME280;43484;43.608;1.458;2024-02-14T08:33:11;100144.81;;;7.26;100.00
49723;BME280;43484;43.608;1.458;2024-02-14T08:35:38;100136.38;;;7.27;100.00
49723;BME280;43484;43.608;1.458;2024-02-14T08:38:09;100133.88;;;7.29;100.00
49723;BME280;43484;43.608;1.458;2024-02-14T08:40:36;100123.84;;;7.32;100.00
49723;BME280;43484;43.608;1.458;2024-02-14T08:43:03;100120.38;;;7.30;100.00
49723;BME280;43484;43.608;1.458;2024-02-14T08:45:31;100113.00;;;7.36;100.00
49723;BME280;43484;43.608;1.458;2024-02-14T08:47:58;100103.38;;;7.48;100.00
49723;BME280;43484;43.608;1.458;2024-02-14T08:50:25;100095.78;;;7.49;100.00
49723;BME280;43484;43.608;1.458;2024-02-14T08:52:51;100107.06;;;7.54;100.00
49723;BME280;43484;43.608;1.458;2024-02-14T08:55:18;100103.69;;;7.55;100.00
49723;BME280;43484;43.608;1.458;2024-02-14T08:57:45;100093.44;;;7.54;100.00
49723;BME280;43484;43.608;1.458;2024-02-14T09:00:15;100084.31;;;7.59;100.00
49723;BME280;43484;43.608;1.458;2024-02-14T09:02:46;100082.19;;;7.68;100.00
49723;BME280;43484;43.608;1.458;2024-02-14T09:05:17;100080.72;;;7.73;100.00
49723;BME280;43484;43.608;1.458;2024-02-14T09:07:44;100076.81;;;7.81;100.00
49723;BME280;43484;43.608;1.458;2024-02-14T09:10:11;100075.09;;;7.80;100.00
49723;BME280;43484;43.608;1.458;2024-02-14T09:12:39;100071.84;;;7.84;100.00
49723;BME280;43484;43.608;1.458;2024-02-14T09:15:08;100067.94;;;7.92;100.00
49723;BME280;43484;43.608;1.458;2024-02-14T09:17:35;100067.09;;;7.92;100.00
49723;BME280;43484;43.608;1.458;2024-02-14T09:20:01;100062.06;;;7.93;100.00
49723;BME280;43484;43.608;1.458;2024-02-14T09:22:29;100047.94;;;8.01;100.00
49723;BME280;43484;43.608;1.458;2024-02-14T09:24:56;100048.94;;;8.05;100.00
49723;BME280;43484;43.608;1.458;2024-02-14T09:27:23;100038.00;;;8.07;100.00
49723;BME280;43484;43.608;1.458;2024-02-14T09:29:50;100029.25;;;8.21;100.00
49723;BME280;43484;43.608;1.458;2024-02-14T09:32:16;100028.72;;;8.28;100.00
49723;BME280;43484;43.608;1.458;2024-02-14T09:34:44;100027.25;;;8.33;100.00
49723;BME280;43484;43.608;1.458;2024-02-14T09:37:13;100031.28;;;8.28;100.00
49723;BME280;43484;43.608;1.458;2024-02-14T09:39:39;100023.00;;;8.34;100.00
49723;BME280;43484;43.608;1.458;2024-02-14T09:42:09;100024.63;;;8.32;100.00
49723;BME280;43484;43.608;1.458;2024-02-14T09:44:38;100023.44;;;8.44;100.00
49723;BME280;43484;43.608;1.458;2024-02-14T09:47:07;100020.25;;;8.50;100.00
49723;BME280;43484;43.608;1.458;2024-02-14T09:49:35;100033.53;;;8.62;100.00
49723;BME280;43484;43.608;1.458;2024-02-14T09:52:03;100034.88;;;8.74;100.00
49723;BME280;43484;43.608;1.458;2024-02-14T09:54:31;100034.47;;;8.86;100.00
49723;BME280;43484;43.608;1.458;2024-02-14T09:56:58;100048.50;;;8.96;100.00
49723;BME280;43484;43.608;1.458;2024-02-14T09:59:25;100044.09;;;9.14;100.00
49723;BME280;43484;43.608;1.458;2024-02-14T10:01:52;100059.00;;;9.25;100.00
49723;BME280;43484;43.608;1.458;2024-02-14T10:04:19;100074.78;;;9.36;100.00
49723;BME280;43484;43.608;1.458;2024-02-14T10:06:50;100072.88;;;9.54;100.00
49723;BME280;43484;43.608;1.458;2024-02-14T10:09:21;100081.13;;;9.69;100.00
49723;BME280;43484;43.608;1.458;2024-02-14T10:11:49;100089.13;;;9.78;100.00
49723;BME280;43484;43.608;1.458;2024-02-14T10:14:15;100091.75;;;9.79;100.00
49723;BME280;43484;43.608;1.458;2024-02-14T10:16:42;100105.75;;;9.89;100.00
49723;BME280;43484;43.608;1.458;2024-02-14T10:19:18;100110.13;;;9.93;100.00
49723;BME280;43484;43.608;1.458;2024-02-14T10:21:56;100110.59;;;10.05;100.00
49723;BME280;43484;43.608;1.458;2024-02-14T10:24:27;100115.97;;;10.11;100.00
49723;BME280;43484;43.608;1.458;2024-02-14T10:26:54;100125.31;;;10.10;100.00
49723;BME280;43484;43.608;1.458;2024-02-14T10:29:24;100131.69;;;10.22;100.00
49723;BME280;43484;43.608;1.458;2024-02-14T10:31:52;100143.03;;;10.28;100.00
49723;BME280;43484;43.608;1.458;2024-02-14T10:34:24;100149.19;;;10.33;100.00
49723;BME280;43484;43.608;1.458;2024-02-14T10:36:53;100168.47;;;10.47;100.00
49723;BME280;43484;43.608;1.458;2024-02-14T10:39:24;100190.34;;;10.63;100.00
49723;BME280;43484;43.608;1.458;2024-02-14T10:41:52;100207.75;;;10.71;100.00
49723;BME280;43484;43.608;1.458;2024-02-14T10:44:19;100224.25;;;10.79;100.00
49723;BME280;43484;43.608;1.458;2024-02-14T10:46:47;100238.84;;;10.82;100.00
49723;BME280;43484;43.608;1.458;2024-02-14T10:49:15;100254.69;;;10.95;100.00
49723;BME280;43484;43.608;1.458;2024-02-14T10:51:43;100277.25;;;11.05;100.00
49723;BME280;43484;43.608;1.458;2024-02-14T10:54:11;100324.97;;;11.25;100.00
49723;BME280;43484;43.608;1.458;2024-02-14T10:56:41;100359.16;;;11.24;100.00
49723;BME280;43484;43.608;1.458;2024-02-14T10:59:15;100398.16;;;11.39;100.00
49723;BME280;43484;43.608;1.458;2024-02-14T11:01:44;100451.63;;;11.53;100.00
49723;BME280;43484;43.608;1.458;2024-02-14T11:04:12;100482.53;;;11.56;100.00
49723;BME280;43484;43.608;1.458;2024-02-14T11:06:46;100502.53;;;11.64;100.00
49723;BME280;43484;43.608;1.458;2024-02-14T11:09:13;100531.41;;;11.82;100.00
49723;BME280;43484;43.608;1.458;2024-02-14T11:11:42;100538.41;;;11.86;100.00
49723;BME280;43484;43.608;1.458;2024-02-14T11:14:18;100548.53;;;12.05;100.00
49723;BME280;43484;43.608;1.458;2024-02-14T11:16:45;100553.34;;;12.21;100.00
49723;BME280;43484;43.608;1.458;2024-02-14T11:19:13;100557.41;;;12.40;100.00
49723;BME280;43484;43.608;1.458;2024-02-14T11:21:42;100562.09;;;12.51;100.00
49723;BME280;43484;43.608;1.458;2024-02-14T11:24:14;100560.34;;;12.50;100.00
49723;BME280;43484;43.608;1.458;2024-02-14T11:26:48;100563.97;;;12.82;100.00
49723;BME280;43484;43.608;1.458;2024-02-14T11:29:16;100564.13;;;12.88;100.00
49723;BME280;43484;43.608;1.458;2024-02-14T11:31:48;100562.59;;;12.93;100.00
49723;BME280;43484;43.608;1.458;2024-02-14T11:34:15;100554.81;;;12.92;100.00
49723;BME280;43484;43.608;1.458;2024-02-14T11:36:43;100554.75;;;12.89;100.00
49723;BME280;43484;43.608;1.458;2024-02-14T11:39:11;100549.94;;;12.99;100.00
49723;BME280;43484;43.608;1.458;2024-02-14T11:41:38;100549.66;;;13.17;100.00
49723;BME280;43484;43.608;1.458;2024-02-14T11:44:05;100537.03;;;13.24;100.00
49723;BME280;43484;43.608;1.458;2024-02-14T11:46:33;100542.06;;;13.21;100.00
49723;BME280;43484;43.608;1.458;2024-02-14T11:49:01;100534.75;;;13.35;100.00
49723;BME280;43484;43.608;1.458;2024-02-14T11:51:29;100534.06;;;13.40;100.00
49723;BME280;43484;43.608;1.458;2024-02-14T11:54:00;100523.78;;;13.40;100.00
49723;BME280;43484;43.608;1.458;2024-02-14T11:56:37;100514.00;;;13.58;100.00
49723;BME280;43484;43.608;1.458;2024-02-14T11:59:06;100520.03;;;13.59;100.00
49723;BME280;43484;43.608;1.458;2024-02-14T12:01:35;100513.50;;;13.71;100.00
49723;BME280;43484;43.608;1.458;2024-02-14T12:04:04;100512.72;;;13.74;100.00
49723;BME280;43484;43.608;1.458;2024-02-14T12:06:32;100501.84;;;13.84;100.00
49723;BME280;43484;43.608;1.458;2024-02-14T12:09:05;100505.94;;;13.77;100.00
49723;BME280;43484;43.608;1.458;2024-02-14T12:11:33;100499.19;;;13.81;100.00
49723;BME280;43484;43.608;1.458;2024-02-14T12:14:04;100490.09;;;13.95;100.00
49723;BME280;43484;43.608;1.458;2024-02-14T12:16:33;100478.31;;;14.03;100.00
49723;BME280;43484;43.608;1.458;2024-02-14T12:19:09;100473.94;;;14.01;100.00
49723;BME280;43484;43.608;1.458;2024-02-14T12:21:42;100467.31;;;14.10;100.00
49723;BME280;43484;43.608;1.458;2024-02-14T12:24:12;100445.84;;;14.10;100.00
49723;BME280;43484;43.608;1.458;2024-02-14T12:26:41;100442.94;;;14.30;100.00
49723;BME280;43484;43.608;1.458;2024-02-14T12:29:11;100432.81;;;14.38;100.00
49723;BME280;43484;43.608;1.458;2024-02-14T12:31:39;100424.31;;;14.42;100.00
49723;BME280;43484;43.608;1.458;2024-02-14T12:34:06;100426.69;;;14.33;100.00
49723;BME280;43484;43.608;1.458;2024-02-14T12:36:33;100415.75;;;14.43;100.00
49723;BME280;43484;43.608;1.458;2024-02-14T12:39:01;100411.53;;;14.45;100.00
49723;BME280;43484;43.608;1.458;2024-02-14T12:41:31;100407.44;;;14.54;100.00
49723;BME280;43484;43.608;1.458;2024-02-14T12:43:59;100402.63;;;14.71;100.00
49723;BME280;43484;43.608;1.458;2024-02-14T12:46:27;100399.44;;;14.82;100.00
49723;BME280;43484;43.608;1.458;2024-02-14T12:48:54;100391.88;;;14.88;100.00
49723;BME280;43484;43.608;1.458;2024-02-14T12:51:21;100379.13;;;14.97;100.00